42.3°F
Current conditions from King Hill
Updated every 5 minutes
 
  Friday October 31, 2014

Station Historical Data
Daily Summary for April 16, 2012 Units:  Both    English   Metric
« Previous Day
Next Day »
Daily Weekly Monthly Yearly Custom
  High: Low: Average:
Temperature: 83.8 °F /  28.8 °C 60.3 °F /  15.7 °C 72.2 °F /  22.3 °C
Dew Point: 58.5 °F /  14.7 °C 49.0 °F /  9.4 °C 54.5 °F /  12.5 °C
Humidity: 83% 36% 57%
Wind Speed: 14.0mph /  22.5km/h - 6.3mph /  10.1km/h
Wind Gust: 27.0mph /  43.5km/h - -
Wind- - SSW
Pressure: 29.88 in /  1011.7 hPa 29.68 in /  1005 hPa -
Precipitation: 0.00 in /  0 mm    
Historical Graphs
 
 
Tabular Data for April 16, 2012
Time Temperature Dew Point Pressure Wind Wind Speed Wind Gust Humidity Daily Rainfall
00:05 60.8 °F /  16 °C 52.8 °F /  11.6 °C 29.88in /  1011.7hPa Calm   6.0mph /  9.7km/h 75% 0.00in /  0mm
00:10 60.9 °F /  16.1 °C 52.9 °F /  11.6 °C 29.87in /  1011.4hPa Calm   6.0mph /  9.7km/h 75% 0.00in /  0mm
00:15 60.9 °F /  16.1 °C 52.9 °F /  11.6 °C 29.87in /  1011.4hPa Calm   5.0mph /  8km/h 75% 0.00in /  0mm
00:20 60.9 °F /  16.1 °C 52.9 °F /  11.6 °C 29.87in /  1011.4hPa South 1.0mph /  1.6km/h 6.0mph /  9.7km/h 75% 0.00in /  0mm
00:25 60.9 °F /  16.1 °C 52.9 °F /  11.6 °C 29.87in /  1011.4hPa SW 2.0mph /  3.2km/h 6.0mph /  9.7km/h 75% 0.00in /  0mm
00:35 61.1 °F /  16.2 °C 53.1 °F /  11.7 °C 29.88in /  1011.7hPa SW 1.0mph /  1.6km/h 7.0mph /  11.3km/h 75% 0.00in /  0mm
00:45 61.1 °F /  16.2 °C 53.1 °F /  11.7 °C 29.88in /  1011.7hPa SSW 3.0mph /  4.8km/h 8.0mph /  12.9km/h 75% 0.00in /  0mm
00:50 61.3 °F /  16.3 °C 53.0 °F /  11.7 °C 29.88in /  1011.7hPa SW 2.0mph /  3.2km/h 8.0mph /  12.9km/h 74% 0.00in /  0mm
00:55 61.3 °F /  16.3 °C 53.0 °F /  11.7 °C 29.88in /  1011.7hPa SSW 2.0mph /  3.2km/h 8.0mph /  12.9km/h 74% 0.00in /  0mm
01:00 61.3 °F /  16.3 °C 53.0 °F /  11.7 °C 29.88in /  1011.7hPa South 2.0mph /  3.2km/h 9.0mph /  14.5km/h 74% 0.00in /  0mm
01:05 61.4 °F /  16.3 °C 53.0 °F /  11.7 °C 29.87in /  1011.4hPa Calm   9.0mph /  14.5km/h 74% 0.00in /  0mm
01:10 61.4 °F /  16.3 °C 53.0 °F /  11.7 °C 29.87in /  1011.4hPa South 4.0mph /  6.4km/h 9.0mph /  14.5km/h 74% 0.00in /  0mm
01:15 61.4 °F /  16.3 °C 53.0 °F /  11.7 °C 29.87in /  1011.4hPa SSW 1.0mph /  1.6km/h 9.0mph /  14.5km/h 74% 0.00in /  0mm
01:20 61.4 °F /  16.3 °C 53.0 °F /  11.7 °C 29.87in /  1011.4hPa Calm   8.0mph /  12.9km/h 74% 0.00in /  0mm
01:25 61.4 °F /  16.3 °C 53.4 °F /  11.9 °C 29.87in /  1011.4hPa SSW 4.0mph /  6.4km/h 10.0mph /  16.1km/h 75% 0.00in /  0mm
01:30 61.4 °F /  16.3 °C 53.4 °F /  11.9 °C 29.87in /  1011.4hPa SW 2.0mph /  3.2km/h 10.0mph /  16.1km/h 75% 0.00in /  0mm
01:35 61.4 °F /  16.3 °C 53.4 °F /  11.9 °C 29.87in /  1011.4hPa South 3.0mph /  4.8km/h 11.0mph /  17.7km/h 75% 0.00in /  0mm
01:40 61.4 °F /  16.3 °C 53.4 °F /  11.9 °C 29.87in /  1011.4hPa SSW 4.0mph /  6.4km/h 11.0mph /  17.7km/h 75% 0.00in /  0mm
01:45 61.3 °F /  16.3 °C 53.3 °F /  11.8 °C 29.87in /  1011.4hPa South 4.0mph /  6.4km/h 8.0mph /  12.9km/h 75% 0.00in /  0mm
01:55 61.2 °F /  16.2 °C 53.6 °F /  12 °C 29.86in /  1011.1hPa SSW 5.0mph /  8km/h 11.0mph /  17.7km/h 76% 0.00in /  0mm
02:05 61.1 °F /  16.2 °C 53.5 °F /  11.9 °C 29.87in /  1011.4hPa SSW 3.0mph /  4.8km/h 10.0mph /  16.1km/h 76% 0.00in /  0mm
02:10 61.1 °F /  16.2 °C 53.5 °F /  11.9 °C 29.87in /  1011.4hPa SSW 2.0mph /  3.2km/h 10.0mph /  16.1km/h 76% 0.00in /  0mm
02:15 61.0 °F /  16.1 °C 53.7 °F /  12.1 °C 29.86in /  1011.1hPa SSW 1.0mph /  1.6km/h 8.0mph /  12.9km/h 77% 0.00in /  0mm
02:20 60.9 °F /  16.1 °C 53.6 °F /  12 °C 29.86in /  1011.1hPa SSW 5.0mph /  8km/h 10.0mph /  16.1km/h 77% 0.00in /  0mm
02:25 60.9 °F /  16.1 °C 53.6 °F /  12 °C 29.86in /  1011.1hPa SSW 3.0mph /  4.8km/h 10.0mph /  16.1km/h 77% 0.00in /  0mm
02:35 60.9 °F /  16.1 °C 54.0 °F /  12.2 °C 29.85in /  1010.7hPa SSW 2.0mph /  3.2km/h 9.0mph /  14.5km/h 78% 0.00in /  0mm
02:40 60.9 °F /  16.1 °C 54.0 °F /  12.2 °C 29.84in /  1010.4hPa SSW 3.0mph /  4.8km/h 11.0mph /  17.7km/h 78% 0.00in /  0mm
02:45 60.8 °F /  16 °C 53.9 °F /  12.2 °C 29.84in /  1010.4hPa SSW 5.0mph /  8km/h 11.0mph /  17.7km/h 78% 0.00in /  0mm
02:55 60.7 °F /  15.9 °C 53.8 °F /  12.1 °C 29.85in /  1010.7hPa SSW 3.0mph /  4.8km/h 8.0mph /  12.9km/h 78% 0.00in /  0mm
03:00 60.7 °F /  15.9 °C 54.2 °F /  12.3 °C 29.85in /  1010.7hPa SSW 3.0mph /  4.8km/h 8.0mph /  12.9km/h 79% 0.00in /  0mm
03:10 60.6 °F /  15.9 °C 54.1 °F /  12.3 °C 29.84in /  1010.4hPa SSW 2.0mph /  3.2km/h 9.0mph /  14.5km/h 79% 0.00in /  0mm
03:15 60.6 °F /  15.9 °C 54.1 °F /  12.3 °C 29.84in /  1010.4hPa SSW 2.0mph /  3.2km/h 7.0mph /  11.3km/h 79% 0.00in /  0mm
03:20 60.5 °F /  15.8 °C 54.3 °F /  12.4 °C 29.85in /  1010.7hPa SSW 4.0mph /  6.4km/h 9.0mph /  14.5km/h 80% 0.00in /  0mm
03:25 60.6 °F /  15.9 °C 54.4 °F /  12.4 °C 29.85in /  1010.7hPa SSW 4.0mph /  6.4km/h 11.0mph /  17.7km/h 80% 0.00in /  0mm
03:30 60.5 °F /  15.8 °C 54.3 °F /  12.4 °C 29.84in /  1010.4hPa SSW 4.0mph /  6.4km/h 12.0mph /  19.3km/h 80% 0.00in /  0mm
03:35 60.3 °F /  15.7 °C 54.5 °F /  12.5 °C 29.84in /  1010.4hPa SSW 4.0mph /  6.4km/h 12.0mph /  19.3km/h 81% 0.00in /  0mm
03:45 60.3 °F /  15.7 °C 54.5 °F /  12.5 °C 29.85in /  1010.7hPa SSW 4.0mph /  6.4km/h 9.0mph /  14.5km/h 81% 0.00in /  0mm
03:55 60.3 °F /  15.7 °C 54.8 °F /  12.7 °C 29.85in /  1010.7hPa SSW 3.0mph /  4.8km/h 10.0mph /  16.1km/h 82% 0.00in /  0mm
04:00 60.4 °F /  15.8 °C 54.9 °F /  12.7 °C 29.85in /  1010.7hPa SSW 5.0mph /  8km/h 11.0mph /  17.7km/h 82% 0.00in /  0mm
04:05 60.5 °F /  15.8 °C 55.0 °F /  12.8 °C 29.85in /  1010.7hPa SSW 6.0mph /  9.7km/h 13.0mph /  20.9km/h 82% 0.00in /  0mm
04:10 60.5 °F /  15.8 °C 55.0 °F /  12.8 °C 29.84in /  1010.4hPa SSW 7.0mph /  11.3km/h 13.0mph /  20.9km/h 82% 0.00in /  0mm
04:15 60.5 °F /  15.8 °C 55.0 °F /  12.8 °C 29.84in /  1010.4hPa SSW 4.0mph /  6.4km/h 12.0mph /  19.3km/h 82% 0.00in /  0mm
04:20 60.6 °F /  15.9 °C 55.1 °F /  12.8 °C 29.85in /  1010.7hPa SW 8.0mph /  12.9km/h 14.0mph /  22.5km/h 82% 0.00in /  0mm
04:25 60.7 °F /  15.9 °C 55.2 °F /  12.9 °C 29.84in /  1010.4hPa SSW 6.0mph /  9.7km/h 14.0mph /  22.5km/h 82% 0.00in /  0mm
04:35 60.6 °F /  15.9 °C 55.1 °F /  12.8 °C 29.84in /  1010.4hPa SSW 4.0mph /  6.4km/h 11.0mph /  17.7km/h 82% 0.00in /  0mm
04:40 60.6 °F /  15.9 °C 55.4 °F /  13 °C 29.84in /  1010.4hPa SSW 6.0mph /  9.7km/h 14.0mph /  22.5km/h 83% 0.00in /  0mm
04:45 60.4 °F /  15.8 °C 55.2 °F /  12.9 °C 29.85in /  1010.7hPa SSW 5.0mph /  8km/h 14.0mph /  22.5km/h 83% 0.00in /  0mm
04:55 60.5 °F /  15.8 °C 55.3 °F /  12.9 °C 29.85in /  1010.7hPa SSW 4.0mph /  6.4km/h 16.0mph /  25.7km/h 83% 0.00in /  0mm
05:00 60.5 °F /  15.8 °C 55.3 °F /  12.9 °C 29.85in /  1010.7hPa SSW 6.0mph /  9.7km/h 14.0mph /  22.5km/h 83% 0.00in /  0mm
05:05 60.5 °F /  15.8 °C 55.3 °F /  12.9 °C 29.85in /  1010.7hPa SW 6.0mph /  9.7km/h 12.0mph /  19.3km/h 83% 0.00in /  0mm
05:10 60.6 °F /  15.9 °C 55.4 °F /  13 °C 29.85in /  1010.7hPa SSW 5.0mph /  8km/h 12.0mph /  19.3km/h 83% 0.00in /  0mm
05:15 60.7 °F /  15.9 °C 55.5 °F /  13.1 °C 29.85in /  1010.7hPa SSW 4.0mph /  6.4km/h 13.0mph /  20.9km/h 83% 0.00in /  0mm
05:20 60.6 °F /  15.9 °C 55.4 °F /  13 °C 29.85in /  1010.7hPa SW 6.0mph /  9.7km/h 13.0mph /  20.9km/h 83% 0.00in /  0mm
05:25 60.7 °F /  15.9 °C 55.5 °F /  13.1 °C 29.85in /  1010.7hPa SSW 6.0mph /  9.7km/h 14.0mph /  22.5km/h 83% 0.00in /  0mm
05:30 60.7 °F /  15.9 °C 55.5 °F /  13.1 °C 29.85in /  1010.7hPa SSW 7.0mph /  11.3km/h 14.0mph /  22.5km/h 83% 0.00in /  0mm
05:35 60.8 °F /  16 °C 55.6 °F /  13.1 °C 29.85in /  1010.7hPa SSW 5.0mph /  8km/h 13.0mph /  20.9km/h 83% 0.00in /  0mm
05:40 60.9 °F /  16.1 °C 55.7 °F /  13.2 °C 29.85in /  1010.7hPa SSW 5.0mph /  8km/h 13.0mph /  20.9km/h 83% 0.00in /  0mm
05:50 61.1 °F /  16.2 °C 55.9 °F /  13.3 °C 29.85in /  1010.7hPa SSW 7.0mph /  11.3km/h 13.0mph /  20.9km/h 83% 0.00in /  0mm
06:00 60.9 °F /  16.1 °C 55.4 °F /  13 °C 29.85in /  1010.7hPa SSW 4.0mph /  6.4km/h 12.0mph /  19.3km/h 82% 0.00in /  0mm
06:05 60.8 °F /  16 °C 55.6 °F /  13.1 °C 29.84in /  1010.4hPa SSW 4.0mph /  6.4km/h 12.0mph /  19.3km/h 83% 0.00in /  0mm
06:10 60.7 °F /  15.9 °C 55.5 °F /  13.1 °C 29.84in /  1010.4hPa SSW 4.0mph /  6.4km/h 12.0mph /  19.3km/h 83% 0.00in /  0mm
06:15 60.6 °F /  15.9 °C 55.4 °F /  13 °C 29.84in /  1010.4hPa SSW 3.0mph /  4.8km/h 10.0mph /  16.1km/h 83% 0.00in /  0mm
06:20 60.5 °F /  15.8 °C 55.3 °F /  12.9 °C 29.85in /  1010.7hPa South 4.0mph /  6.4km/h 9.0mph /  14.5km/h 83% 0.00in /  0mm
06:25 60.6 °F /  15.9 °C 55.4 °F /  13 °C 29.85in /  1010.7hPa South 2.0mph /  3.2km/h 10.0mph /  16.1km/h 83% 0.00in /  0mm
06:30 60.8 °F /  16 °C 55.6 °F /  13.1 °C 29.85in /  1010.7hPa SSW 1.0mph /  1.6km/h 10.0mph /  16.1km/h 83% 0.00in /  0mm
06:35 60.7 °F /  15.9 °C 55.5 °F /  13.1 °C 29.85in /  1010.7hPa South 1.0mph /  1.6km/h 8.0mph /  12.9km/h 83% 0.00in /  0mm
06:40 60.8 °F /  16 °C 55.6 °F /  13.1 °C 29.85in /  1010.7hPa SSW 3.0mph /  4.8km/h 7.0mph /  11.3km/h 83% 0.00in /  0mm
06:45 60.9 °F /  16.1 °C 55.7 °F /  13.2 °C 29.85in /  1010.7hPa SSW 2.0mph /  3.2km/h 7.0mph /  11.3km/h 83% 0.00in /  0mm
06:55 61.3 °F /  16.3 °C 56.1 °F /  13.4 °C 29.85in /  1010.7hPa SSW 4.0mph /  6.4km/h 9.0mph /  14.5km/h 83% 0.00in /  0mm
07:00 61.6 °F /  16.4 °C 56.1 °F /  13.4 °C 29.86in /  1011.1hPa SSW 2.0mph /  3.2km/h 9.0mph /  14.5km/h 82% 0.00in /  0mm
07:10 62.0 °F /  16.7 °C 56.4 °F /  13.6 °C 29.85in /  1010.7hPa SSW 6.0mph /  9.7km/h 12.0mph /  19.3km/h 82% 0.00in /  0mm
07:15 62.3 °F /  16.8 °C 56.4 °F /  13.6 °C 29.85in /  1010.7hPa SSW 6.0mph /  9.7km/h 13.0mph /  20.9km/h 81% 0.00in /  0mm
07:20 62.7 °F /  17.1 °C 56.4 °F /  13.6 °C 29.85in /  1010.7hPa SSW 6.0mph /  9.7km/h 13.0mph /  20.9km/h 80% 0.00in /  0mm
07:25 63.1 °F /  17.3 °C 56.5 °F /  13.6 °C 29.85in /  1010.7hPa South 6.0mph /  9.7km/h 11.0mph /  17.7km/h 79% 0.00in /  0mm
07:30 63.6 °F /  17.6 °C 56.6 °F /  13.7 °C 29.86in /  1011.1hPa SSW 6.0mph /  9.7km/h 13.0mph /  20.9km/h 78% 0.00in /  0mm
07:35 63.8 °F /  17.7 °C 56.5 °F /  13.6 °C 29.85in /  1010.7hPa SSW 7.0mph /  11.3km/h 13.0mph /  20.9km/h 77% 0.00in /  0mm
07:45 63.7 °F /  17.6 °C 56.4 °F /  13.6 °C 29.85in /  1010.7hPa SSW 6.0mph /  9.7km/h 12.0mph /  19.3km/h 77% 0.00in /  0mm
07:50 63.9 °F /  17.7 °C 56.6 °F /  13.7 °C 29.85in /  1010.7hPa SSW 5.0mph /  8km/h 13.0mph /  20.9km/h 77% 0.00in /  0mm
07:55 64.4 °F /  18 °C 57.0 °F /  13.9 °C 29.85in /  1010.7hPa SSW 5.0mph /  8km/h 13.0mph /  20.9km/h 77% 0.00in /  0mm
08:05 65.5 °F /  18.6 °C 57.4 °F /  14.1 °C 29.85in /  1010.7hPa SSW 3.0mph /  4.8km/h 13.0mph /  20.9km/h 75% 0.00in /  0mm
08:15 66.3 °F /  19.1 °C 57.0 °F /  13.9 °C 29.85in /  1010.7hPa SSW 5.0mph /  8km/h 12.0mph /  19.3km/h 72% 0.00in /  0mm
08:20 66.8 °F /  19.3 °C 57.5 °F /  14.2 °C 29.85in /  1010.7hPa SSW 3.0mph /  4.8km/h 13.0mph /  20.9km/h 72% 0.00in /  0mm
08:25 67.1 °F /  19.5 °C 57.4 °F /  14.1 °C 29.85in /  1010.7hPa SSW 4.0mph /  6.4km/h 13.0mph /  20.9km/h 71% 0.00in /  0mm
08:30 67.3 °F /  19.6 °C 57.6 °F /  14.2 °C 29.84in /  1010.4hPa SSW 7.0mph /  11.3km/h 16.0mph /  25.7km/h 71% 0.00in /  0mm
08:35 67.3 °F /  19.6 °C 57.2 °F /  14 °C 29.84in /  1010.4hPa SSW 9.0mph /  14.5km/h 16.0mph /  25.7km/h 70% 0.00in /  0mm
08:40 67.2 °F /  19.6 °C 57.1 °F /  13.9 °C 29.84in /  1010.4hPa SSW 7.0mph /  11.3km/h 15.0mph /  24.1km/h 70% 0.00in /  0mm
08:45 67.6 °F /  19.8 °C 57.5 °F /  14.2 °C 29.84in /  1010.4hPa SSW 6.0mph /  9.7km/h 15.0mph /  24.1km/h 70% 0.00in /  0mm
08:55 68.3 °F /  20.2 °C 57.7 °F /  14.3 °C 29.84in /  1010.4hPa SSW 5.0mph /  8km/h 17.0mph /  27.4km/h 69% 0.00in /  0mm
09:00 69.0 °F /  20.6 °C 58.0 °F /  14.4 °C 29.84in /  1010.4hPa South 5.0mph /  8km/h 13.0mph /  20.9km/h 68% 0.00in /  0mm
09:10 70.1 °F /  21.2 °C 57.8 °F /  14.3 °C 29.84in /  1010.4hPa SSW 8.0mph /  12.9km/h 18.0mph /  29km/h 65% 0.00in /  0mm
09:15 70.2 °F /  21.2 °C 57.9 °F /  14.4 °C 29.84in /  1010.4hPa SSW 6.0mph /  9.7km/h 18.0mph /  29km/h 65% 0.00in /  0mm
09:20 70.3 °F /  21.3 °C 57.1 °F /  13.9 °C 29.84in /  1010.4hPa SSW 10.0mph /  16.1km/h 16.0mph /  25.7km/h 63% 0.00in /  0mm
09:30 70.6 °F /  21.4 °C 57.4 °F /  14.1 °C 29.84in /  1010.4hPa South 7.0mph /  11.3km/h 15.0mph /  24.1km/h 63% 0.00in /  0mm
09:35 71.0 °F /  21.7 °C 57.8 °F /  14.3 °C 29.84in /  1010.4hPa SSW 5.0mph /  8km/h 15.0mph /  24.1km/h 63% 0.00in /  0mm
09:40 71.3 °F /  21.8 °C 57.6 °F /  14.2 °C 29.84in /  1010.4hPa SSW 7.0mph /  11.3km/h 16.0mph /  25.7km/h 62% 0.00in /  0mm
09:50 71.0 °F /  21.7 °C 57.3 °F /  14.1 °C 29.84in /  1010.4hPa SW 9.0mph /  14.5km/h 16.0mph /  25.7km/h 62% 0.00in /  0mm
09:55 71.5 °F /  21.9 °C 57.8 °F /  14.3 °C 29.84in /  1010.4hPa SSW 7.0mph /  11.3km/h 16.0mph /  25.7km/h 62% 0.00in /  0mm
10:00 71.7 °F /  22.1 °C 57.5 °F /  14.2 °C 29.84in /  1010.4hPa SSW 7.0mph /  11.3km/h 18.0mph /  29km/h 61% 0.00in /  0mm
10:05 72.1 °F /  22.3 °C 57.9 °F /  14.4 °C 29.84in /  1010.4hPa SSW 9.0mph /  14.5km/h 18.0mph /  29km/h 61% 0.00in /  0mm
10:10 72.8 °F /  22.7 °C 57.7 °F /  14.3 °C 29.84in /  1010.4hPa SSW 7.0mph /  11.3km/h 16.0mph /  25.7km/h 59% 0.00in /  0mm
10:15 73.1 °F /  22.8 °C 57.9 °F /  14.4 °C 29.84in /  1010.4hPa SW 6.0mph /  9.7km/h 16.0mph /  25.7km/h 59% 0.00in /  0mm
10:20 73.6 °F /  23.1 °C 57.4 °F /  14.1 °C 29.84in /  1010.4hPa SSW 9.0mph /  14.5km/h 19.0mph /  30.6km/h 57% 0.00in /  0mm
10:25 73.2 °F /  22.9 °C 57.6 °F /  14.2 °C 29.84in /  1010.4hPa SSW 10.0mph /  16.1km/h 19.0mph /  30.6km/h 58% 0.00in /  0mm
10:35 74.1 °F /  23.4 °C 57.9 °F /  14.4 °C 29.85in /  1010.7hPa SSW 8.0mph /  12.9km/h 16.0mph /  25.7km/h 57% 0.00in /  0mm
10:40 74.2 °F /  23.4 °C 58.0 °F /  14.4 °C 29.84in /  1010.4hPa SSW 7.0mph /  11.3km/h 15.0mph /  24.1km/h 57% 0.00in /  0mm
10:45 74.7 °F /  23.7 °C 58.0 °F /  14.4 °C 29.84in /  1010.4hPa SW 7.0mph /  11.3km/h 15.0mph /  24.1km/h 56% 0.00in /  0mm
10:50 75.3 °F /  24.1 °C 58.5 °F /  14.7 °C 29.84in /  1010.4hPa SSW 8.0mph /  12.9km/h 17.0mph /  27.4km/h 56% 0.00in /  0mm
10:55 75.2 °F /  24 °C 57.9 °F /  14.4 °C 29.83in /  1010hPa SW 10.0mph /  16.1km/h 17.0mph /  27.4km/h 55% 0.00in /  0mm
11:00 75.8 °F /  24.3 °C 58.0 °F /  14.4 °C 29.83in /  1010hPa SSW 8.0mph /  12.9km/h 17.0mph /  27.4km/h 54% 0.00in /  0mm
11:10 75.9 °F /  24.4 °C 58.1 °F /  14.5 °C 29.83in /  1010hPa SW 7.0mph /  11.3km/h 18.0mph /  29km/h 54% 0.00in /  0mm
11:15 75.8 °F /  24.3 °C 57.5 °F /  14.2 °C 29.84in /  1010.4hPa SW 9.0mph /  14.5km/h 16.0mph /  25.7km/h 53% 0.00in /  0mm
11:20 74.8 °F /  23.8 °C 57.1 °F /  13.9 °C 29.83in /  1010hPa SW 9.0mph /  14.5km/h 18.0mph /  29km/h 54% 0.00in /  0mm
11:25 74.9 °F /  23.8 °C 57.2 °F /  14 °C 29.83in /  1010hPa SW 8.0mph /  12.9km/h 18.0mph /  29km/h 54% 0.00in /  0mm
11:35 76.0 °F /  24.4 °C 58.2 °F /  14.6 °C 29.83in /  1010hPa SW 6.0mph /  9.7km/h 19.0mph /  30.6km/h 54% 0.00in /  0mm
11:45 76.5 °F /  24.7 °C 57.6 °F /  14.2 °C 29.82in /  1009.7hPa SW 6.0mph /  9.7km/h 19.0mph /  30.6km/h 52% 0.00in /  0mm
11:50 77.0 °F /  25 °C 58.1 °F /  14.5 °C 29.82in /  1009.7hPa SW 6.0mph /  9.7km/h 19.0mph /  30.6km/h 52% 0.00in /  0mm
12:00 77.2 °F /  25.1 °C 56.6 °F /  13.7 °C 29.82in /  1009.7hPa SW 12.0mph /  19.3km/h 18.0mph /  29km/h 49% 0.00in /  0mm
12:05 77.5 °F /  25.3 °C 56.9 °F /  13.8 °C 29.82in /  1009.7hPa SSW 9.0mph /  14.5km/h 18.0mph /  29km/h 49% 0.00in /  0mm
12:10 77.8 °F /  25.4 °C 56.0 °F /  13.3 °C 29.82in /  1009.7hPa SW 14.0mph /  22.5km/h 21.0mph /  33.8km/h 47% 0.00in /  0mm
12:20 77.4 °F /  25.2 °C 56.2 °F /  13.4 °C 29.81in /  1009.4hPa SSW 9.0mph /  14.5km/h 21.0mph /  33.8km/h 48% 0.00in /  0mm
12:25 76.9 °F /  24.9 °C 55.7 °F /  13.2 °C 29.81in /  1009.4hPa SW 9.0mph /  14.5km/h 21.0mph /  33.8km/h 48% 0.00in /  0mm
12:30 77.1 °F /  25.1 °C 56.5 °F /  13.6 °C 29.80in /  1009hPa SSW 9.0mph /  14.5km/h 21.0mph /  33.8km/h 49% 0.00in /  0mm
12:35 77.5 °F /  25.3 °C 55.7 °F /  13.2 °C 29.81in /  1009.4hPa SSW 12.0mph /  19.3km/h 18.0mph /  29km/h 47% 0.00in /  0mm
12:40 77.6 °F /  25.3 °C 56.4 °F /  13.6 °C 29.80in /  1009hPa SW 8.0mph /  12.9km/h 19.0mph /  30.6km/h 48% 0.00in /  0mm
12:45 78.7 °F /  25.9 °C 56.8 °F /  13.8 °C 29.80in /  1009hPa SSW 9.0mph /  14.5km/h 19.0mph /  30.6km/h 47% 0.00in /  0mm
13:00 78.7 °F /  25.9 °C 56.2 °F /  13.4 °C 29.80in /  1009hPa SSW 10.0mph /  16.1km/h 23.0mph /  37km/h 46% 0.00in /  0mm
13:05 78.6 °F /  25.9 °C 54.3 °F /  12.4 °C 29.80in /  1009hPa SSW 11.0mph /  17.7km/h 23.0mph /  37km/h 43% 0.00in /  0mm
13:10 78.8 °F /  26 °C 55.7 °F /  13.2 °C 29.79in /  1008.7hPa SW 6.0mph /  9.7km/h 21.0mph /  33.8km/h 45% 0.00in /  0mm
13:15 79.4 °F /  26.3 °C 55.0 °F /  12.8 °C 29.79in /  1008.7hPa SSW 10.0mph /  16.1km/h 16.0mph /  25.7km/h 43% 0.00in /  0mm
13:20 79.4 °F /  26.3 °C 55.6 °F /  13.1 °C 29.79in /  1008.7hPa SSW 8.0mph /  12.9km/h 21.0mph /  33.8km/h 44% 0.00in /  0mm
13:30 79.6 °F /  26.4 °C 55.2 °F /  12.9 °C 29.79in /  1008.7hPa SSW 14.0mph /  22.5km/h 23.0mph /  37km/h 43% 0.00in /  0mm
13:35 79.6 °F /  26.4 °C 55.8 °F /  13.2 °C 29.79in /  1008.7hPa SW 14.0mph /  22.5km/h 23.0mph /  37km/h 44% 0.00in /  0mm
13:40 79.9 °F /  26.6 °C 56.1 °F /  13.4 °C 29.79in /  1008.7hPa SW 10.0mph /  16.1km/h 22.0mph /  35.4km/h 44% 0.00in /  0mm
13:50 79.4 °F /  26.3 °C 55.6 °F /  13.1 °C 29.79in /  1008.7hPa SSW 10.0mph /  16.1km/h 22.0mph /  35.4km/h 44% 0.00in /  0mm
13:55 79.9 °F /  26.6 °C 56.1 °F /  13.4 °C 29.79in /  1008.7hPa SSW 8.0mph /  12.9km/h 22.0mph /  35.4km/h 44% 0.00in /  0mm
14:00 79.8 °F /  26.6 °C 55.3 °F /  12.9 °C 29.79in /  1008.7hPa SSW 10.0mph /  16.1km/h 22.0mph /  35.4km/h 43% 0.00in /  0mm
14:05 79.2 °F /  26.2 °C 55.4 °F /  13 °C 29.78in /  1008.4hPa SW 9.0mph /  14.5km/h 19.0mph /  30.6km/h 44% 0.00in /  0mm
14:10 79.6 °F /  26.4 °C 55.8 °F /  13.2 °C 29.78in /  1008.4hPa SSW 8.0mph /  12.9km/h 19.0mph /  30.6km/h 44% 0.00in /  0mm
14:15 79.7 °F /  26.5 °C 56.5 °F /  13.6 °C 29.78in /  1008.4hPa SSW 7.0mph /  11.3km/h 21.0mph /  33.8km/h 45% 0.00in /  0mm
14:20 79.7 °F /  26.5 °C 55.9 °F /  13.3 °C 29.78in /  1008.4hPa SSW 9.0mph /  14.5km/h 21.0mph /  33.8km/h 44% 0.00in /  0mm
14:25 79.5 °F /  26.4 °C 55.7 °F /  13.2 °C 29.78in /  1008.4hPa SW 11.0mph /  17.7km/h 20.0mph /  32.2km/h 44% 0.00in /  0mm
14:30 79.3 °F /  26.3 °C 55.5 °F /  13.1 °C 29.78in /  1008.4hPa SSW 12.0mph /  19.3km/h 20.0mph /  32.2km/h 44% 0.00in /  0mm
14:35 79.1 °F /  26.2 °C 56.0 °F /  13.3 °C 29.78in /  1008.4hPa SW 8.0mph /  12.9km/h 20.0mph /  32.2km/h 45% 0.00in /  0mm
14:40 79.8 °F /  26.6 °C 57.2 °F /  14 °C 29.77in /  1008hPa SW 4.0mph /  6.4km/h 19.0mph /  30.6km/h 46% 0.00in /  0mm
14:45 80.3 °F /  26.8 °C 56.4 °F /  13.6 °C 29.77in /  1008hPa SW 7.0mph /  11.3km/h 16.0mph /  25.7km/h 44% 0.00in /  0mm
14:50 80.9 °F /  27.2 °C 56.3 °F /  13.5 °C 29.76in /  1007.7hPa SSW 7.0mph /  11.3km/h 16.0mph /  25.7km/h 43% 0.00in /  0mm
15:00 80.4 °F /  26.9 °C 55.2 °F /  12.9 °C 29.76in /  1007.7hPa SSW 12.0mph /  19.3km/h 22.0mph /  35.4km/h 42% 0.00in /  0mm
15:05 80.0 °F /  26.7 °C 56.2 °F /  13.4 °C 29.76in /  1007.7hPa SSW 7.0mph /  11.3km/h 22.0mph /  35.4km/h 44% 0.00in /  0mm
15:10 81.4 °F /  27.4 °C 56.8 °F /  13.8 °C 29.76in /  1007.7hPa SW 11.0mph /  17.7km/h 22.0mph /  35.4km/h 43% 0.00in /  0mm
15:15 83.3 °F /  28.5 °C 57.2 °F /  14 °C 29.76in /  1007.7hPa SW 9.0mph /  14.5km/h 20.0mph /  32.2km/h 41% 0.00in /  0mm
15:20 83.5 °F /  28.6 °C 56.7 °F /  13.7 °C 29.75in /  1007.3hPa SSW 9.0mph /  14.5km/h 20.0mph /  32.2km/h 40% 0.00in /  0mm
15:25 83.8 °F /  28.8 °C 57.6 °F /  14.2 °C 29.75in /  1007.3hPa SSW 5.0mph /  8km/h 19.0mph /  30.6km/h 41% 0.00in /  0mm
15:30 83.1 °F /  28.4 °C 57.0 °F /  13.9 °C 29.74in /  1007hPa SW 7.0mph /  11.3km/h 19.0mph /  30.6km/h 41% 0.00in /  0mm
15:35 82.1 °F /  27.8 °C 56.1 °F /  13.4 °C 29.75in /  1007.3hPa SSW 13.0mph /  20.9km/h 22.0mph /  35.4km/h 41% 0.00in /  0mm
15:40 81.2 °F /  27.3 °C 56.0 °F /  13.3 °C 29.74in /  1007hPa SSW 11.0mph /  17.7km/h 22.0mph /  35.4km/h 42% 0.00in /  0mm
15:45 81.1 °F /  27.3 °C 55.9 °F /  13.3 °C 29.74in /  1007hPa SSW 6.0mph /  9.7km/h 21.0mph /  33.8km/h 42% 0.00in /  0mm
15:50 80.7 °F /  27.1 °C 56.2 °F /  13.4 °C 29.75in /  1007.3hPa SW 11.0mph /  17.7km/h 21.0mph /  33.8km/h 43% 0.00in /  0mm
15:55 80.4 °F /  26.9 °C 55.9 °F /  13.3 °C 29.74in /  1007hPa SSW 8.0mph /  12.9km/h 21.0mph /  33.8km/h 43% 0.00in /  0mm
16:00 79.8 °F /  26.6 °C 56.0 °F /  13.3 °C 29.74in /  1007hPa South 7.0mph /  11.3km/h 18.0mph /  29km/h 44% 0.00in /  0mm
16:05 80.2 °F /  26.8 °C 56.3 °F /  13.5 °C 29.74in /  1007hPa SSW 8.0mph /  12.9km/h 18.0mph /  29km/h 44% 0.00in /  0mm
16:10 80.1 °F /  26.7 °C 55.6 °F /  13.1 °C 29.73in /  1006.7hPa SSW 8.0mph /  12.9km/h 22.0mph /  35.4km/h 43% 0.00in /  0mm
16:15 79.7 °F /  26.5 °C 55.3 °F /  12.9 °C 29.73in /  1006.7hPa SSW 12.0mph /  19.3km/h 23.0mph /  37km/h 43% 0.00in /  0mm
16:20 79.9 °F /  26.6 °C 55.4 °F /  13 °C 29.73in /  1006.7hPa SSW 10.0mph /  16.1km/h 23.0mph /  37km/h 43% 0.00in /  0mm
16:25 79.7 °F /  26.5 °C 55.3 °F /  12.9 °C 29.73in /  1006.7hPa SSW 8.0mph /  12.9km/h 18.0mph /  29km/h 43% 0.00in /  0mm
16:30 79.4 °F /  26.3 °C 55.0 °F /  12.8 °C 29.73in /  1006.7hPa SSW 8.0mph /  12.9km/h 22.0mph /  35.4km/h 43% 0.00in /  0mm
16:35 79.4 °F /  26.3 °C 55.6 °F /  13.1 °C 29.72in /  1006.3hPa SSW 10.0mph /  16.1km/h 22.0mph /  35.4km/h 44% 0.00in /  0mm
16:40 80.3 °F /  26.8 °C 57.1 °F /  13.9 °C 29.72in /  1006.3hPa SSW 5.0mph /  8km/h 21.0mph /  33.8km/h 45% 0.00in /  0mm
16:45 82.3 °F /  27.9 °C 56.3 °F /  13.5 °C 29.71in /  1006hPa SSW 4.0mph /  6.4km/h 16.0mph /  25.7km/h 41% 0.00in /  0mm
16:55 82.9 °F /  28.3 °C 55.4 °F /  13 °C 29.71in /  1006hPa SSW 8.0mph /  12.9km/h 22.0mph /  35.4km/h 39% 0.00in /  0mm
17:05 82.7 °F /  28.2 °C 55.3 °F /  12.9 °C 29.71in /  1006hPa SSW 10.0mph /  16.1km/h 22.0mph /  35.4km/h 39% 0.00in /  0mm
17:10 82.7 °F /  28.2 °C 54.5 °F /  12.5 °C 29.71in /  1006hPa SW 10.0mph /  16.1km/h 22.0mph /  35.4km/h 38% 0.00in /  0mm
17:15 82.4 °F /  28 °C 55.0 °F /  12.8 °C 29.71in /  1006hPa SSW 12.0mph /  19.3km/h 27.0mph /  43.5km/h 39% 0.00in /  0mm
17:19 82.5 °F /  28.1 °C 54.4 °F /  12.4 °C 29.71in /  1006hPa SSW 9.0mph /  14.5km/h 27.0mph /  43.5km/h 38% 0.00in /  0mm
17:25 82.7 °F /  28.2 °C 54.5 °F /  12.5 °C 29.70in /  1005.6hPa SSW 6.0mph /  9.7km/h 21.0mph /  33.8km/h 38% 0.00in /  0mm
17:30 82.7 °F /  28.2 °C 53.8 °F /  12.1 °C 29.70in /  1005.6hPa SSW 9.0mph /  14.5km/h 18.0mph /  29km/h 37% 0.00in /  0mm
17:35 82.7 °F /  28.2 °C 53.8 °F /  12.1 °C 29.70in /  1005.6hPa SW 9.0mph /  14.5km/h 21.0mph /  33.8km/h 37% 0.00in /  0mm
17:45 82.5 °F /  28.1 °C 52.9 °F /  11.6 °C 29.70in /  1005.6hPa SSW 10.0mph /  16.1km/h 22.0mph /  35.4km/h 36% 0.00in /  0mm
17:50 82.3 °F /  27.9 °C 53.5 °F /  11.9 °C 29.69in /  1005.3hPa SSW 9.0mph /  14.5km/h 22.0mph /  35.4km/h 37% 0.00in /  0mm
17:55 82.3 °F /  27.9 °C 53.5 °F /  11.9 °C 29.69in /  1005.3hPa SSW 11.0mph /  17.7km/h 23.0mph /  37km/h 37% 0.00in /  0mm
18:04 82.2 °F /  27.9 °C 53.4 °F /  11.9 °C 29.69in /  1005.3hPa SSW 10.0mph /  16.1km/h 24.0mph /  38.6km/h 37% 0.00in /  0mm
18:10 82.1 °F /  27.8 °C 53.3 °F /  11.8 °C 29.70in /  1005.6hPa SSW 12.0mph /  19.3km/h 24.0mph /  38.6km/h 37% 0.00in /  0mm
18:15 82.1 °F /  27.8 °C 52.5 °F /  11.4 °C 29.69in /  1005.3hPa SSW 11.0mph /  17.7km/h 21.0mph /  33.8km/h 36% 0.00in /  0mm
18:20 82.0 °F /  27.8 °C 53.2 °F /  11.8 °C 29.69in /  1005.3hPa SSW 11.0mph /  17.7km/h 21.0mph /  33.8km/h 37% 0.00in /  0mm
18:29 81.8 °F /  27.7 °C 53.0 °F /  11.7 °C 29.69in /  1005.3hPa SSW 7.0mph /  11.3km/h 16.0mph /  25.7km/h 37% 0.00in /  0mm
18:35 81.7 °F /  27.6 °C 52.9 °F /  11.6 °C 29.69in /  1005.3hPa SSW 7.0mph /  11.3km/h 17.0mph /  27.4km/h 37% 0.00in /  0mm
18:45 81.2 °F /  27.3 °C 53.2 °F /  11.8 °C 29.69in /  1005.3hPa SSW 6.0mph /  9.7km/h 16.0mph /  25.7km/h 38% 0.00in /  0mm
18:50 81.1 °F /  27.3 °C 53.1 °F /  11.7 °C 29.69in /  1005.3hPa SSW 4.0mph /  6.4km/h 16.0mph /  25.7km/h 38% 0.00in /  0mm
18:55 80.9 °F /  27.2 °C 52.9 °F /  11.6 °C 29.69in /  1005.3hPa SSW 5.0mph /  8km/h 16.0mph /  25.7km/h 38% 0.00in /  0mm
19:00 80.5 °F /  26.9 °C 52.6 °F /  11.4 °C 29.69in /  1005.3hPa SSW 4.0mph /  6.4km/h 11.0mph /  17.7km/h 38% 0.00in /  0mm
19:04 80.1 °F /  26.7 °C 52.9 °F /  11.6 °C 29.69in /  1005.3hPa SSW 3.0mph /  4.8km/h 10.0mph /  16.1km/h 39% 0.00in /  0mm
19:10 79.8 °F /  26.6 °C 52.7 °F /  11.5 °C 29.69in /  1005.3hPa SW 5.0mph /  8km/h 10.0mph /  16.1km/h 39% 0.00in /  0mm
19:15 79.4 °F /  26.3 °C 52.3 °F /  11.3 °C 29.69in /  1005.3hPa SSW 4.0mph /  6.4km/h 10.0mph /  16.1km/h 39% 0.00in /  0mm
19:19 79.2 °F /  26.2 °C 51.4 °F /  10.8 °C 29.69in /  1005.3hPa SSW 6.0mph /  9.7km/h 11.0mph /  17.7km/h 38% 0.00in /  0mm
19:25 79.0 °F /  26.1 °C 51.3 °F /  10.7 °C 29.68in /  1005hPa SSW 4.0mph /  6.4km/h 11.0mph /  17.7km/h 38% 0.00in /  0mm
19:30 78.7 °F /  25.9 °C 51.0 °F /  10.6 °C 29.68in /  1005hPa SSW 6.0mph /  9.7km/h 10.0mph /  16.1km/h 38% 0.00in /  0mm
19:35 78.7 °F /  25.9 °C 51.0 °F /  10.6 °C 29.68in /  1005hPa SSW 4.0mph /  6.4km/h 11.0mph /  17.7km/h 38% 0.00in /  0mm
19:39 78.6 °F /  25.9 °C 50.9 °F /  10.5 °C 29.68in /  1005hPa SSW 1.0mph /  1.6km/h 11.0mph /  17.7km/h 38% 0.00in /  0mm
19:45 78.3 °F /  25.7 °C 50.6 °F /  10.3 °C 29.68in /  1005hPa SSW 5.0mph /  8km/h 10.0mph /  16.1km/h 38% 0.00in /  0mm
19:50 78.4 °F /  25.8 °C 50.0 °F /  10 °C 29.68in /  1005hPa SW 7.0mph /  11.3km/h 13.0mph /  20.9km/h 37% 0.00in /  0mm
19:55 78.4 °F /  25.8 °C 50.0 °F /  10 °C 29.68in /  1005hPa SSW 5.0mph /  8km/h 13.0mph /  20.9km/h 37% 0.00in /  0mm
20:00 78.3 °F /  25.7 °C 49.9 °F /  9.9 °C 29.68in /  1005hPa SSW 4.0mph /  6.4km/h 11.0mph /  17.7km/h 37% 0.00in /  0mm
20:10 77.7 °F /  25.4 °C 49.4 °F /  9.7 °C 29.69in /  1005.3hPa Calm   8.0mph /  12.9km/h 37% 0.00in /  0mm
20:15 77.8 °F /  25.4 °C 49.5 °F /  9.7 °C 29.69in /  1005.3hPa SSW 6.0mph /  9.7km/h 11.0mph /  17.7km/h 37% 0.00in /  0mm
20:20 78.0 °F /  25.6 °C 50.4 °F /  10.2 °C 29.69in /  1005.3hPa SSW 2.0mph /  3.2km/h 12.0mph /  19.3km/h 38% 0.00in /  0mm
20:24 77.9 °F /  25.5 °C 50.3 °F /  10.2 °C 29.69in /  1005.3hPa SW 6.0mph /  9.7km/h 12.0mph /  19.3km/h 38% 0.00in /  0mm
20:30 77.9 °F /  25.5 °C 50.3 °F /  10.2 °C 29.69in /  1005.3hPa SSW 6.0mph /  9.7km/h 12.0mph /  19.3km/h 38% 0.00in /  0mm
20:34 78.1 °F /  25.6 °C 50.5 °F /  10.3 °C 29.69in /  1005.3hPa SSW 3.0mph /  4.8km/h 12.0mph /  19.3km/h 38% 0.00in /  0mm
20:40 78.0 °F /  25.6 °C 50.4 °F /  10.2 °C 29.70in /  1005.6hPa SSW 5.0mph /  8km/h 14.0mph /  22.5km/h 38% 0.00in /  0mm
20:45 78.1 °F /  25.6 °C 50.5 °F /  10.3 °C 29.70in /  1005.6hPa SW 3.0mph /  4.8km/h 14.0mph /  22.5km/h 38% 0.00in /  0mm
20:49 78.1 °F /  25.6 °C 51.2 °F /  10.7 °C 29.70in /  1005.6hPa SW 4.0mph /  6.4km/h 18.0mph /  29km/h 39% 0.00in /  0mm
20:55 78.2 °F /  25.7 °C 50.5 °F /  10.3 °C 29.70in /  1005.6hPa SW 7.0mph /  11.3km/h 18.0mph /  29km/h 38% 0.00in /  0mm
20:59 78.1 °F /  25.6 °C 51.2 °F /  10.7 °C 29.70in /  1005.6hPa SSW 6.0mph /  9.7km/h 12.0mph /  19.3km/h 39% 0.00in /  0mm
21:05 77.9 °F /  25.5 °C 51.0 °F /  10.6 °C 29.70in /  1005.6hPa SSW 4.0mph /  6.4km/h 10.0mph /  16.1km/h 39% 0.00in /  0mm
21:10 77.9 °F /  25.5 °C 51.0 °F /  10.6 °C 29.69in /  1005.3hPa SSW 6.0mph /  9.7km/h 12.0mph /  19.3km/h 39% 0.00in /  0mm
21:15 77.9 °F /  25.5 °C 51.0 °F /  10.6 °C 29.69in /  1005.3hPa SW 2.0mph /  3.2km/h 12.0mph /  19.3km/h 39% 0.00in /  0mm
21:20 77.8 °F /  25.4 °C 50.9 °F /  10.5 °C 29.69in /  1005.3hPa SW 3.0mph /  4.8km/h 8.0mph /  12.9km/h 39% 0.00in /  0mm
21:25 77.9 °F /  25.5 °C 51.0 °F /  10.6 °C 29.70in /  1005.6hPa SW 6.0mph /  9.7km/h 12.0mph /  19.3km/h 39% 0.00in /  0mm
21:30 77.8 °F /  25.4 °C 50.9 °F /  10.5 °C 29.69in /  1005.3hPa SSW 5.0mph /  8km/h 12.0mph /  19.3km/h 39% 0.00in /  0mm
21:35 78.1 °F /  25.6 °C 50.5 °F /  10.3 °C 29.69in /  1005.3hPa SW 6.0mph /  9.7km/h 15.0mph /  24.1km/h 38% 0.00in /  0mm
21:40 78.1 °F /  25.6 °C 51.2 °F /  10.7 °C 29.70in /  1005.6hPa SSW 8.0mph /  12.9km/h 15.0mph /  24.1km/h 39% 0.00in /  0mm
21:45 78.2 °F /  25.7 °C 50.5 °F /  10.3 °C 29.70in /  1005.6hPa SW 10.0mph /  16.1km/h 16.0mph /  25.7km/h 38% 0.00in /  0mm
21:55 78.1 °F /  25.6 °C 50.5 °F /  10.3 °C 29.69in /  1005.3hPa SSW 7.0mph /  11.3km/h 13.0mph /  20.9km/h 38% 0.00in /  0mm
22:00 78.1 °F /  25.6 °C 50.5 °F /  10.3 °C 29.69in /  1005.3hPa SW 7.0mph /  11.3km/h 13.0mph /  20.9km/h 38% 0.00in /  0mm
22:05 77.9 °F /  25.5 °C 50.3 °F /  10.2 °C 29.69in /  1005.3hPa SSW 5.0mph /  8km/h 13.0mph /  20.9km/h 38% 0.00in /  0mm
22:10 77.6 °F /  25.3 °C 50.7 °F /  10.4 °C 29.69in /  1005.3hPa SSW 4.0mph /  6.4km/h 13.0mph /  20.9km/h 39% 0.00in /  0mm
22:14 77.4 °F /  25.2 °C 50.5 °F /  10.3 °C 29.69in /  1005.3hPa SSW 5.0mph /  8km/h 13.0mph /  20.9km/h 39% 0.00in /  0mm
22:19 77.4 °F /  25.2 °C 50.5 °F /  10.3 °C 29.69in /  1005.3hPa SSW 3.0mph /  4.8km/h 13.0mph /  20.9km/h 39% 0.00in /  0mm
22:25 77.2 °F /  25.1 °C 50.4 °F /  10.2 °C 29.69in /  1005.3hPa SSW 3.0mph /  4.8km/h 9.0mph /  14.5km/h 39% 0.00in /  0mm
22:30 77.1 °F /  25.1 °C 50.3 °F /  10.2 °C 29.69in /  1005.3hPa SSW 5.0mph /  8km/h 9.0mph /  14.5km/h 39% 0.00in /  0mm
22:35 77.0 °F /  25 °C 50.2 °F /  10.1 °C 29.69in /  1005.3hPa SW 4.0mph /  6.4km/h 9.0mph /  14.5km/h 39% 0.00in /  0mm
22:40 76.9 °F /  24.9 °C 50.1 °F /  10.1 °C 29.69in /  1005.3hPa SSW 4.0mph /  6.4km/h 9.0mph /  14.5km/h 39% 0.00in /  0mm
22:50 76.7 °F /  24.8 °C 49.9 °F /  9.9 °C 29.69in /  1005.3hPa SW 5.0mph /  8km/h 8.0mph /  12.9km/h 39% 0.00in /  0mm
22:59 76.6 °F /  24.8 °C 49.8 °F /  9.9 °C 29.69in /  1005.3hPa SW 4.0mph /  6.4km/h 10.0mph /  16.1km/h 39% 0.00in /  0mm
23:05 76.6 °F /  24.8 °C 49.1 °F /  9.5 °C 29.70in /  1005.6hPa SW 6.0mph /  9.7km/h 11.0mph /  17.7km/h 38% 0.00in /  0mm
23:10 76.7 °F /  24.8 °C 49.2 °F /  9.6 °C 29.70in /  1005.6hPa SW 5.0mph /  8km/h 11.0mph /  17.7km/h 38% 0.00in /  0mm
23:15 76.8 °F /  24.9 °C 49.3 °F /  9.6 °C 29.70in /  1005.6hPa SW 7.0mph /  11.3km/h 15.0mph /  24.1km/h 38% 0.00in /  0mm
23:19 76.9 °F /  24.9 °C 49.4 °F /  9.7 °C 29.71in /  1006hPa SW 7.0mph /  11.3km/h 15.0mph /  24.1km/h 38% 0.00in /  0mm
23:25 77.3 °F /  25.2 °C 49.0 °F /  9.4 °C 29.73in /  1006.7hPa WSW 10.0mph /  16.1km/h 18.0mph /  29km/h 37% 0.00in /  0mm
23:30 76.9 °F /  24.9 °C 50.1 °F /  10.1 °C 29.74in /  1007hPa West 11.0mph /  17.7km/h 23.0mph /  37km/h 39% 0.00in /  0mm
23:34 76.1 °F /  24.5 °C 53.2 °F /  11.8 °C 29.75in /  1007.3hPa WNW 10.0mph /  16.1km/h 25.0mph /  40.2km/h 45% 0.00in /  0mm
23:40 75.3 °F /  24.1 °C 54.3 °F /  12.4 °C 29.75in /  1007.3hPa West 10.0mph /  16.1km/h 25.0mph /  40.2km/h 48% 0.00in /  0mm
23:50 73.8 °F /  23.2 °C 55.6 °F /  13.1 °C 29.76in /  1007.7hPa West 10.0mph /  16.1km/h 23.0mph /  37km/h 53% 0.00in /  0mm
23:55 73.2 °F /  22.9 °C 56.1 °F /  13.4 °C 29.76in /  1007.7hPa WNW 8.0mph /  12.9km/h 17.0mph /  27.4km/h 55% 0.00in /  0mm
23:59 72.7 °F /  22.6 °C 56.1 °F /  13.4 °C 29.75in /  1007.3hPa West 7.0mph /  11.3km/h 15.0mph /  24.1km/h 56% 0.00in /  0mm
Westford Weather
Compliments of Weather Underground

 
 
Current Radar Loop:

Copyright © WestfordWeather.net 2007-2014. All rights reserved.